createdAt,value
2018-07-06T00:01:04.913Z,20.00
2018-07-06T00:02:11.919Z,20.01
2018-07-06T00:03:19.018Z,19.99
2018-07-06T00:04:26.002Z,19.99
2018-07-06T00:05:33.048Z,19.98
2018-07-06T00:06:39.982Z,19.96
2018-07-06T00:07:47.067Z,19.96
2018-07-06T00:08:54.148Z,19.96
2018-07-06T00:10:01.283Z,19.95
2018-07-06T00:11:08.287Z,19.94
2018-07-06T00:12:15.347Z,19.95
2018-07-06T00:13:22.331Z,19.95
2018-07-06T00:14:29.382Z,19.94
2018-07-06T00:15:36.395Z,19.92
2018-07-06T00:16:43.049Z,19.92
2018-07-06T00:17:50.163Z,19.92
2018-07-06T00:18:57.216Z,19.92
2018-07-06T00:20:04.316Z,19.90
2018-07-06T00:21:11.320Z,19.91
2018-07-06T00:22:18.291Z,19.89
2018-07-06T00:23:25.531Z,19.90
2018-07-06T00:24:32.030Z,19.89
2018-07-06T00:25:39.082Z,19.88
2018-07-06T00:26:46.106Z,19.87
2018-07-06T00:27:52.726Z,19.86
2018-07-06T00:28:59.831Z,19.85
2018-07-06T00:30:06.541Z,19.86
2018-07-06T00:31:13.684Z,19.83
2018-07-06T00:32:20.414Z,19.84
2018-07-06T00:33:27.342Z,19.84
2018-07-06T00:34:34.376Z,19.81
2018-07-06T00:35:41.359Z,19.81
2018-07-06T00:36:48.739Z,19.80
2018-07-06T00:37:55.162Z,19.79
2018-07-06T00:39:02.183Z,19.80
2018-07-06T00:40:09.821Z,19.78
2018-07-06T00:41:16.089Z,19.78
2018-07-06T00:42:22.906Z,19.77
2018-07-06T00:43:30.059Z,19.76
2018-07-06T00:44:36.778Z,19.76
2018-07-06T00:45:43.495Z,19.75
2018-07-06T00:46:50.191Z,19.75
2018-07-06T00:47:57.196Z,19.73
2018-07-06T00:49:04.327Z,19.73
2018-07-06T00:50:11.546Z,19.72
2018-07-06T00:51:18.658Z,19.72
2018-07-06T00:52:25.672Z,19.71
2018-07-06T00:53:32.666Z,19.70
2018-07-06T00:54:39.432Z,19.69
2018-07-06T00:55:46.218Z,19.69
2018-07-06T00:56:53.014Z,19.68
2018-07-06T00:57:59.944Z,19.66
2018-07-06T00:59:07.039Z,19.65
2018-07-06T01:00:14.003Z,19.66
2018-07-06T01:01:20.835Z,19.65
2018-07-06T01:02:27.903Z,19.63
2018-07-06T01:03:34.657Z,19.64
2018-07-06T01:04:41.781Z,19.64
2018-07-06T01:05:48.557Z,19.62
2018-07-06T01:06:55.617Z,19.62
2018-07-06T01:08:02.512Z,19.61
2018-07-06T01:09:09.199Z,19.59
2018-07-06T01:10:16.327Z,19.59
2018-07-06T01:11:23.199Z,19.59
2018-07-06T01:12:30.264Z,19.57
2018-07-06T01:13:37.219Z,19.57
2018-07-06T01:14:44.112Z,19.55
2018-07-06T01:15:50.788Z,19.55
2018-07-06T01:16:57.870Z,19.54
2018-07-06T01:18:05.015Z,19.54
2018-07-06T01:19:12.096Z,19.53
2018-07-06T01:20:19.221Z,19.51
2018-07-06T01:21:26.370Z,19.52
2018-07-06T01:22:33.368Z,19.50
2018-07-06T01:23:40.008Z,19.50
2018-07-06T01:24:47.113Z,19.49
2018-07-06T01:25:53.834Z,19.48
2018-07-06T01:27:00.774Z,19.47
2018-07-06T01:28:07.375Z,19.46
2018-07-06T01:29:14.343Z,19.45
2018-07-06T01:30:21.337Z,19.45
2018-07-06T01:31:28.383Z,19.44
2018-07-06T01:32:35.427Z,19.43
2018-07-06T01:33:42.520Z,19.43
2018-07-06T01:34:49.158Z,19.43
2018-07-06T01:35:56.248Z,19.40
2018-07-06T01:37:03.318Z,19.39
2018-07-06T01:38:09.993Z,19.39
2018-07-06T01:39:16.701Z,19.39
2018-07-06T01:40:23.536Z,19.37
2018-07-06T01:41:30.649Z,19.36
2018-07-06T01:42:37.418Z,19.36
2018-07-06T01:43:44.518Z,19.34
2018-07-06T01:44:51.472Z,19.34
2018-07-06T01:45:58.426Z,19.32
2018-07-06T01:47:05.621Z,19.32
2018-07-06T01:48:12.666Z,19.31
2018-07-06T01:49:19.414Z,19.30
2018-07-06T01:50:26.441Z,19.30
2018-07-06T01:51:33.598Z,19.29
2018-07-06T01:52:40.689Z,19.28
2018-07-06T01:53:47.674Z,19.27
2018-07-06T01:54:54.578Z,19.26
2018-07-06T01:56:01.504Z,19.25
2018-07-06T01:57:08.246Z,19.25
2018-07-06T01:58:15.250Z,19.22
2018-07-06T01:59:22.283Z,19.22
2018-07-06T02:00:29.308Z,19.20
2018-07-06T02:01:36.414Z,19.20
2018-07-06T02:02:43.547Z,19.21
2018-07-06T02:03:50.544Z,19.19
2018-07-06T02:04:57.459Z,19.18
2018-07-06T02:06:04.537Z,19.18
2018-07-06T02:07:11.447Z,19.16
2018-07-06T02:08:18.491Z,19.14
2018-07-06T02:09:25.551Z,19.15
2018-07-06T02:10:32.611Z,19.14
2018-07-06T02:11:39.553Z,19.11
2018-07-06T02:12:46.829Z,19.12
2018-07-06T02:13:53.450Z,19.10
2018-07-06T02:15:00.524Z,19.10
2018-07-06T02:16:07.551Z,19.09
2018-07-06T02:17:14.516Z,19.08
2018-07-06T02:18:21.232Z,19.06
2018-07-06T02:19:28.280Z,19.05
2018-07-06T02:20:35.330Z,19.04
2018-07-06T02:21:42.306Z,19.04
2018-07-06T02:22:49.512Z,19.04
2018-07-06T02:23:56.128Z,19.03
2018-07-06T02:25:03.247Z,19.00
2018-07-06T02:26:15.276Z,19.00
2018-07-06T02:27:16.966Z,18.98
2018-07-06T02:28:23.867Z,18.99
2018-07-06T02:29:30.953Z,18.97
2018-07-06T02:30:38.082Z,18.97
2018-07-06T02:31:44.991Z,18.96
2018-07-06T02:32:51.716Z,18.96
2018-07-06T02:33:58.709Z,18.95
2018-07-06T02:35:05.793Z,18.94
2018-07-06T02:36:13.155Z,18.93
2018-07-06T02:37:19.669Z,18.91
2018-07-06T02:38:26.611Z,18.91
2018-07-06T02:39:33.621Z,18.89
2018-07-06T02:40:40.730Z,18.88
2018-07-06T02:41:47.868Z,18.88
2018-07-06T02:42:54.878Z,18.87
2018-07-06T02:44:01.863Z,18.86
2018-07-06T02:45:08.894Z,18.85
2018-07-06T02:46:15.854Z,18.84
2018-07-06T02:47:22.918Z,18.82
2018-07-06T02:48:30.066Z,18.82
2018-07-06T02:49:37.086Z,18.81
2018-07-06T02:50:44.076Z,18.80
2018-07-06T02:51:51.043Z,18.80
2018-07-06T02:52:58.271Z,18.78
2018-07-06T02:54:04.826Z,18.77
2018-07-06T02:55:11.771Z,18.76
2018-07-06T02:56:18.604Z,18.77
2018-07-06T02:57:25.661Z,18.76
2018-07-06T02:58:32.631Z,18.75
2018-07-06T02:59:39.676Z,18.72
2018-07-06T03:00:46.675Z,18.72
2018-07-06T03:01:53.474Z,18.72
2018-07-06T03:03:00.396Z,18.71
2018-07-06T03:04:07.382Z,18.66
2018-07-06T03:05:14.441Z,18.68
2018-07-06T03:06:21.580Z,18.68
2018-07-06T03:07:28.496Z,18.68
2018-07-06T03:08:35.370Z,18.65
2018-07-06T03:09:42.368Z,18.65
2018-07-06T03:10:49.303Z,18.63
2018-07-06T03:11:56.374Z,18.63
2018-07-06T03:13:03.155Z,18.62
2018-07-06T03:14:10.096Z,18.60
2018-07-06T03:15:17.143Z,18.60
2018-07-06T03:16:24.007Z,18.60
2018-07-06T03:17:31.065Z,18.58
2018-07-06T03:18:37.997Z,18.58
2018-07-06T03:19:44.928Z,18.57
2018-07-06T03:20:51.788Z,18.56
2018-07-06T03:21:58.850Z,18.56
2018-07-06T03:23:05.765Z,18.53
2018-07-06T03:24:12.642Z,18.53
2018-07-06T03:25:19.675Z,18.52
2018-07-06T03:26:26.727Z,18.51
2018-07-06T03:27:33.744Z,18.50
2018-07-06T03:28:40.940Z,18.50
2018-07-06T03:29:47.827Z,18.48
2018-07-06T03:30:54.871Z,18.47
2018-07-06T03:32:01.720Z,18.47
2018-07-06T03:33:08.688Z,18.46
2018-07-06T03:34:15.775Z,18.45
2018-07-06T03:35:22.863Z,18.44
2018-07-06T03:36:29.905Z,18.43
2018-07-06T03:37:36.981Z,18.42
2018-07-06T03:38:44.094Z,18.41
2018-07-06T03:39:51.137Z,18.41
2018-07-06T03:40:58.132Z,18.39
2018-07-06T03:42:05.073Z,18.39
2018-07-06T03:43:12.115Z,18.38
2018-07-06T03:44:19.201Z,18.38
2018-07-06T03:45:26.091Z,18.35
2018-07-06T03:46:32.969Z,18.33
2018-07-06T03:47:40.062Z,18.32
2018-07-06T03:48:46.998Z,18.33
2018-07-06T03:49:54.029Z,18.32
2018-07-06T03:51:01.055Z,18.31
2018-07-06T03:52:07.917Z,18.31
2018-07-06T03:53:14.958Z,18.30
2018-07-06T03:54:21.994Z,18.29
2018-07-06T03:55:28.865Z,18.29
2018-07-06T03:56:35.916Z,18.27
2018-07-06T03:57:42.944Z,18.26
2018-07-06T03:58:49.950Z,18.24
2018-07-06T03:59:57.067Z,18.24
2018-07-06T04:01:04.057Z,18.24
2018-07-06T04:02:10.897Z,18.22
2018-07-06T04:03:17.882Z,18.20
2018-07-06T04:04:24.775Z,18.20
2018-07-06T04:05:31.678Z,18.19
2018-07-06T04:06:38.851Z,18.19
2018-07-06T04:07:45.858Z,18.18
2018-07-06T04:08:52.841Z,18.16
2018-07-06T04:09:59.910Z,18.15
2018-07-06T04:11:06.857Z,18.14
2018-07-06T04:12:13.858Z,18.14
2018-07-06T04:13:20.867Z,18.13
2018-07-06T04:14:27.695Z,18.12
2018-07-06T04:15:34.681Z,18.11
2018-07-06T04:16:41.607Z,18.09
2018-07-06T04:17:48.563Z,18.08
2018-07-06T04:18:55.651Z,18.07
2018-07-06T04:20:02.707Z,18.08
2018-07-06T04:21:09.677Z,18.07
2018-07-06T04:22:16.755Z,18.06
2018-07-06T04:23:23.884Z,18.03
2018-07-06T04:24:30.996Z,18.04
2018-07-06T04:25:38.003Z,18.02
2018-07-06T04:26:45.016Z,18.01
2018-07-06T04:27:52.095Z,18.00
2018-07-06T04:28:59.010Z,17.99
2018-07-06T04:30:06.120Z,17.99
2018-07-06T04:31:13.238Z,17.98
2018-07-06T04:32:20.223Z,17.97
2018-07-06T04:33:27.180Z,17.97
2018-07-06T04:34:34.087Z,17.96
2018-07-06T04:35:41.106Z,17.95
2018-07-06T04:36:48.215Z,17.94
2018-07-06T04:37:55.182Z,17.94
2018-07-06T04:39:02.081Z,17.93
2018-07-06T04:40:08.831Z,17.93
2018-07-06T04:41:15.761Z,17.91
2018-07-06T04:42:22.593Z,17.91
2018-07-06T04:43:29.664Z,17.90
2018-07-06T04:44:36.548Z,17.89
2018-07-06T04:45:43.602Z,17.88
2018-07-06T04:46:50.466Z,17.87
2018-07-06T04:47:57.483Z,17.87
2018-07-06T04:49:04.307Z,17.85
2018-07-06T04:50:11.143Z,17.85
2018-07-06T04:51:18.170Z,17.84
2018-07-06T04:52:25.262Z,17.83
2018-07-06T04:53:32.202Z,17.83
2018-07-06T04:54:39.252Z,17.81
2018-07-06T04:55:46.256Z,17.81
2018-07-06T04:56:53.226Z,17.80
2018-07-06T04:58:00.300Z,17.80
2018-07-06T04:59:07.199Z,17.78
2018-07-06T05:00:14.158Z,17.79
2018-07-06T05:01:21.180Z,17.77
2018-07-06T05:02:28.142Z,17.77
2018-07-06T05:03:35.144Z,17.76
2018-07-06T05:04:42.055Z,17.77
2018-07-06T05:05:49.079Z,17.76
2018-07-06T05:06:56.198Z,17.75
2018-07-06T05:08:02.875Z,17.74
2018-07-06T05:09:09.686Z,17.74
2018-07-06T05:10:16.746Z,17.74
2018-07-06T05:11:23.836Z,17.74
2018-07-06T05:12:30.790Z,17.72
2018-07-06T05:13:37.671Z,17.72
2018-07-06T05:14:44.660Z,17.70
2018-07-06T05:15:51.780Z,17.70
2018-07-06T05:16:58.669Z,17.69
2018-07-06T05:18:05.518Z,17.68
2018-07-06T05:19:12.391Z,17.68
2018-07-06T05:20:19.176Z,17.67
2018-07-06T05:21:26.089Z,17.68
2018-07-06T05:22:33.033Z,17.68
2018-07-06T05:23:40.061Z,17.67
2018-07-06T05:24:47.230Z,17.67
2018-07-06T05:25:54.174Z,17.66
2018-07-06T05:27:01.182Z,17.65
2018-07-06T05:28:08.424Z,17.65
2018-07-06T05:29:14.991Z,17.64
2018-07-06T05:30:22.027Z,17.64
2018-07-06T05:31:28.797Z,17.63
2018-07-06T05:32:35.634Z,17.64
2018-07-06T05:33:42.680Z,17.63
2018-07-06T05:34:49.831Z,17.62
2018-07-06T05:35:56.810Z,17.65
2018-07-06T05:37:04.038Z,17.62
2018-07-06T05:38:10.922Z,17.63
2018-07-06T05:39:18.011Z,17.62
2018-07-06T05:40:25.036Z,17.61
2018-07-06T05:41:31.994Z,17.61
2018-07-06T05:42:38.958Z,17.62
2018-07-06T05:43:46.168Z,17.60
2018-07-06T05:44:52.891Z,17.61
2018-07-06T05:45:59.899Z,17.60
2018-07-06T05:47:07.183Z,17.60
2018-07-06T05:48:13.827Z,17.60
2018-07-06T05:49:20.927Z,17.60
2018-07-06T05:50:27.660Z,17.59
2018-07-06T05:51:34.651Z,17.59
2018-07-06T05:52:41.898Z,17.60
2018-07-06T05:53:48.493Z,17.60
2018-07-06T05:54:55.590Z,17.58
2018-07-06T05:56:02.505Z,17.58
2018-07-06T05:57:09.469Z,17.59
2018-07-06T05:58:16.314Z,17.58
2018-07-06T05:59:23.291Z,17.59
2018-07-06T06:00:30.224Z,17.59
2018-07-06T06:01:37.103Z,17.57
2018-07-06T06:02:44.151Z,17.59
2018-07-06T06:03:51.078Z,17.59
2018-07-06T06:04:57.859Z,17.60
2018-07-06T06:06:04.827Z,17.58
2018-07-06T06:07:11.663Z,17.60
2018-07-06T06:08:18.320Z,17.60
2018-07-06T06:09:25.135Z,17.59
2018-07-06T06:10:32.005Z,17.59
2018-07-06T06:11:38.783Z,17.60
2018-07-06T06:12:45.565Z,17.60
2018-07-06T06:13:52.354Z,17.61
2018-07-06T06:14:59.205Z,17.60
2018-07-06T06:16:06.017Z,17.59
2018-07-06T06:17:12.871Z,17.61
2018-07-06T06:18:19.644Z,17.59
2018-07-06T06:19:26.479Z,17.62
2018-07-06T06:20:33.284Z,17.61
2018-07-06T06:21:40.093Z,17.61
2018-07-06T06:22:46.934Z,17.61
2018-07-06T06:23:53.738Z,17.63
2018-07-06T06:25:00.558Z,17.62
2018-07-06T06:26:07.765Z,17.63
2018-07-06T06:27:14.108Z,17.64
2018-07-06T06:28:20.887Z,17.63
2018-07-06T06:29:27.677Z,17.65
2018-07-06T06:30:34.590Z,17.64
2018-07-06T06:31:41.431Z,17.65
2018-07-06T06:32:48.323Z,17.65
2018-07-06T06:33:55.264Z,17.65
2018-07-06T06:35:02.292Z,17.67
2018-07-06T06:36:09.218Z,17.68
2018-07-06T06:37:16.060Z,17.67
2018-07-06T06:38:22.918Z,17.68
2018-07-06T06:39:29.747Z,17.69
2018-07-06T06:40:36.624Z,17.69
2018-07-06T06:41:43.394Z,17.69
2018-07-06T06:42:50.167Z,17.72
2018-07-06T06:43:57.021Z,17.71
2018-07-06T06:45:03.911Z,17.72
2018-07-06T06:46:10.782Z,17.72
2018-07-06T06:47:17.549Z,17.72
2018-07-06T06:48:24.326Z,17.73
2018-07-06T06:49:31.410Z,17.74
2018-07-06T06:50:38.159Z,17.75
2018-07-06T06:51:44.959Z,17.75
2018-07-06T06:52:51.790Z,17.77
2018-07-06T06:53:58.549Z,17.78
2018-07-06T06:55:05.434Z,17.78
2018-07-06T06:56:12.250Z,17.79
2018-07-06T06:57:19.047Z,17.79
2018-07-06T06:58:25.940Z,17.80
2018-07-06T06:59:32.828Z,17.81
2018-07-06T07:00:39.774Z,17.83
2018-07-06T07:01:46.696Z,17.78
2018-07-06T07:02:53.462Z,17.84
2018-07-06T07:04:00.266Z,17.85
2018-07-06T07:05:07.183Z,17.85
2018-07-06T07:06:13.990Z,17.87
2018-07-06T07:07:20.814Z,17.86
2018-07-06T07:08:27.716Z,17.87
2018-07-06T07:09:34.612Z,17.87
2018-07-06T07:10:41.530Z,17.89
2018-07-06T07:11:48.564Z,17.90
2018-07-06T07:12:55.340Z,17.90
2018-07-06T07:14:02.109Z,17.91
2018-07-06T07:15:09.164Z,17.91
2018-07-06T07:16:15.975Z,17.92
2018-07-06T07:17:22.862Z,17.94
2018-07-06T07:18:29.635Z,17.94
2018-07-06T07:19:36.490Z,17.96
2018-07-06T07:20:43.303Z,17.97
2018-07-06T07:21:50.177Z,17.98
2018-07-06T07:22:57.068Z,17.99
2018-07-06T07:24:04.037Z,17.99
2018-07-06T07:25:10.789Z,18.02
2018-07-06T07:26:17.595Z,18.04
2018-07-06T07:27:24.537Z,18.03
2018-07-06T07:28:31.374Z,18.03
2018-07-06T07:29:38.210Z,18.06
2018-07-06T07:30:45.013Z,18.07
2018-07-06T07:31:51.902Z,18.08
2018-07-06T07:32:58.718Z,18.08
2018-07-06T07:34:05.517Z,18.09
2018-07-06T07:35:12.311Z,18.11
2018-07-06T07:36:19.130Z,18.12
2018-07-06T07:37:25.929Z,18.13
2018-07-06T07:38:32.687Z,18.14
2018-07-06T07:39:39.497Z,18.16
2018-07-06T07:40:46.284Z,18.17
2018-07-06T07:41:53.107Z,18.17
2018-07-06T07:43:01.619Z,18.19
2018-07-06T07:44:06.926Z,18.19
2018-07-06T07:45:13.671Z,18.21
2018-07-06T07:46:20.497Z,18.23
2018-07-06T07:47:27.412Z,18.24
2018-07-06T07:48:34.220Z,18.25
2018-07-06T07:49:41.160Z,18.26
2018-07-06T07:50:47.982Z,18.27
2018-07-06T07:51:54.796Z,18.28
2018-07-06T07:53:01.875Z,18.28
2018-07-06T07:54:08.850Z,18.30
2018-07-06T07:55:15.727Z,18.32
2018-07-06T07:56:22.654Z,18.34
2018-07-06T07:57:29.481Z,18.34
2018-07-06T07:58:36.331Z,18.35
2018-07-06T07:59:43.598Z,18.38
2018-07-06T08:00:50.009Z,18.39
2018-07-06T08:01:56.695Z,18.40
2018-07-06T08:03:03.496Z,18.41
2018-07-06T08:04:10.383Z,18.44
2018-07-06T08:05:17.254Z,18.42
2018-07-06T08:06:24.126Z,18.46
2018-07-06T08:07:30.918Z,18.47
2018-07-06T08:08:37.678Z,18.48
2018-07-06T08:09:44.561Z,18.49
2018-07-06T08:10:51.614Z,18.50
2018-07-06T08:11:58.496Z,18.52
2018-07-06T08:13:05.266Z,18.53
2018-07-06T08:14:12.068Z,18.54
2018-07-06T08:15:18.910Z,18.56
2018-07-06T08:16:32.963Z,18.58
2018-07-06T08:17:32.475Z,18.58
2018-07-06T08:18:39.291Z,18.60
2018-07-06T08:19:46.116Z,18.62
2018-07-06T08:20:52.961Z,18.63
2018-07-06T08:22:00.078Z,18.65
2018-07-06T08:23:06.832Z,18.65
2018-07-06T08:24:13.740Z,18.66
2018-07-06T08:25:20.885Z,18.70
2018-07-06T08:26:27.681Z,18.72
2018-07-06T08:27:34.465Z,18.72
2018-07-06T08:28:41.218Z,18.73
2018-07-06T08:29:48.031Z,18.76
2018-07-06T08:30:54.856Z,18.77
2018-07-06T08:32:01.547Z,18.76
2018-07-06T08:33:08.366Z,18.80
2018-07-06T08:34:15.511Z,18.81
2018-07-06T08:35:22.386Z,18.82
2018-07-06T08:36:29.356Z,18.84
2018-07-06T08:38:40.245Z,18.85
2018-07-06T08:39:47.095Z,18.89
2018-07-06T08:40:54.030Z,18.90
2018-07-06T08:42:00.791Z,18.92
2018-07-06T08:43:07.559Z,18.94
2018-07-06T08:44:14.336Z,18.95
2018-07-06T08:45:21.162Z,18.97
2018-07-06T08:46:28.106Z,18.98
2018-07-06T08:47:34.902Z,18.99
2018-07-06T08:48:41.900Z,19.02
2018-07-06T08:49:48.770Z,19.03
2018-07-06T08:50:55.863Z,19.06
2018-07-06T08:52:02.724Z,19.08
2018-07-06T08:53:09.525Z,19.08
2018-07-06T08:54:16.423Z,19.09
2018-07-06T08:56:30.285Z,19.14
2018-07-06T08:57:37.155Z,19.16
2018-07-06T08:58:44.069Z,19.17
2018-07-06T08:59:50.919Z,19.19
2018-07-06T09:00:57.845Z,19.20
2018-07-06T09:02:04.714Z,19.24
2018-07-06T09:03:11.577Z,19.25
2018-07-06T09:04:18.319Z,19.28
2018-07-06T09:05:25.117Z,19.29
2018-07-06T09:06:31.944Z,19.31
2018-07-06T09:07:41.029Z,19.34
2018-07-06T09:08:45.811Z,19.33
2018-07-06T09:09:52.579Z,19.37
2018-07-06T09:10:59.463Z,19.37
2018-07-06T09:12:06.222Z,19.39
2018-07-06T09:13:13.178Z,19.40
2018-07-06T09:14:19.989Z,19.44
2018-07-06T09:15:26.824Z,19.45
2018-07-06T09:16:33.642Z,19.47
2018-07-06T09:17:40.484Z,19.49
2018-07-06T09:18:47.275Z,19.50
2018-07-06T09:19:54.249Z,19.51
2018-07-06T09:21:00.882Z,19.53
2018-07-06T09:22:07.659Z,19.55
2018-07-06T09:23:14.557Z,19.57
2018-07-06T09:24:21.271Z,19.59
2018-07-06T09:25:28.056Z,19.61
2018-07-06T09:26:34.869Z,19.63
2018-07-06T09:27:41.679Z,19.64
2018-07-06T09:28:48.405Z,19.66
2018-07-06T09:29:55.137Z,19.68
2018-07-06T09:31:02.126Z,19.71
2018-07-06T09:32:08.897Z,19.72
2018-07-06T09:33:16.099Z,19.74
2018-07-06T09:34:22.735Z,19.75
2018-07-06T09:35:29.518Z,19.76
2018-07-06T09:36:36.379Z,19.78
2018-07-06T09:37:43.130Z,19.81
2018-07-06T09:38:49.959Z,19.74
2018-07-06T09:39:56.823Z,19.84
2018-07-06T09:41:03.615Z,19.85
2018-07-06T09:42:10.527Z,19.88
2018-07-06T09:43:17.711Z,19.90
2018-07-06T09:44:24.549Z,19.91
2018-07-06T09:45:33.490Z,19.93
2018-07-06T09:46:38.239Z,19.95
2018-07-06T09:47:46.259Z,19.98
2018-07-06T09:48:51.854Z,20.00
2018-07-06T09:49:58.686Z,20.00
2018-07-06T09:51:05.489Z,20.04
2018-07-06T09:52:12.311Z,20.06
2018-07-06T09:53:19.188Z,20.06
2018-07-06T09:54:26.065Z,20.10
2018-07-06T09:55:33.007Z,20.11
2018-07-06T09:56:39.842Z,20.12
2018-07-06T09:57:46.607Z,20.13
2018-07-06T09:58:53.333Z,20.16
2018-07-06T10:00:00.111Z,20.18
2018-07-06T10:01:06.946Z,20.20
2018-07-06T10:02:13.801Z,20.21
2018-07-06T10:03:20.799Z,20.23
2018-07-06T10:04:27.666Z,20.25
2018-07-06T10:05:34.488Z,20.27
2018-07-06T10:06:41.262Z,20.30
2018-07-06T10:07:48.148Z,20.31
2018-07-06T10:08:55.072Z,20.33
2018-07-06T10:10:01.934Z,20.36
2018-07-06T10:11:08.741Z,20.37
2018-07-06T10:12:15.928Z,20.38
2018-07-06T10:13:22.734Z,20.40
2018-07-06T10:14:29.515Z,20.43
2018-07-06T10:15:36.351Z,20.43
2018-07-06T10:16:43.190Z,20.46
2018-07-06T10:17:50.031Z,20.48
2018-07-06T10:18:57.841Z,20.49
2018-07-06T10:20:03.781Z,20.50
2018-07-06T10:21:10.734Z,20.52
2018-07-06T10:22:17.670Z,20.56
2018-07-06T10:23:24.411Z,20.59
2018-07-06T10:24:31.469Z,20.60
2018-07-06T10:25:38.326Z,20.63
2018-07-06T10:26:45.118Z,20.65
2018-07-06T10:27:51.930Z,20.66
2018-07-06T10:28:59.049Z,20.68
2018-07-06T10:30:06.094Z,20.70
2018-07-06T10:31:12.913Z,20.73
2018-07-06T10:32:19.969Z,20.74
2018-07-06T10:33:26.857Z,20.75
2018-07-06T10:34:33.724Z,20.78
2018-07-06T10:35:40.505Z,20.80
2018-07-06T10:36:47.285Z,20.81
2018-07-06T10:37:54.055Z,20.83
2018-07-06T10:39:00.877Z,20.85
2018-07-06T10:40:07.740Z,20.87
2018-07-06T10:41:14.787Z,20.89
2018-07-06T10:42:21.670Z,20.92
2018-07-06T10:43:28.482Z,20.93
2018-07-06T10:44:35.286Z,20.95
2018-07-06T10:45:42.199Z,20.97
2018-07-06T10:46:49.033Z,20.98
2018-07-06T10:47:55.787Z,21.01
2018-07-06T10:49:02.902Z,21.04
2018-07-06T10:50:09.730Z,21.05
2018-07-06T10:51:16.503Z,21.06
2018-07-06T10:52:23.313Z,21.09
2018-07-06T10:53:30.097Z,21.10
2018-07-06T10:54:36.858Z,21.13
2018-07-06T10:55:43.579Z,21.14
2018-07-06T10:56:50.392Z,21.16
2018-07-06T10:57:57.177Z,21.18
2018-07-06T10:59:05.183Z,21.18
2018-07-06T11:00:11.023Z,21.20
2018-07-06T11:01:18.085Z,21.22
2018-07-06T11:02:24.877Z,21.23
2018-07-06T11:03:31.675Z,21.26
2018-07-06T11:04:38.514Z,21.26
2018-07-06T11:05:45.266Z,21.28
2018-07-06T11:06:52.158Z,21.30
2018-07-06T11:07:59.200Z,21.32
2018-07-06T11:09:06.326Z,21.33
2018-07-06T11:10:13.151Z,21.36
2018-07-06T11:11:19.990Z,21.37
2018-07-06T11:12:26.758Z,21.37
2018-07-06T11:13:33.590Z,21.39
2018-07-06T11:14:40.458Z,21.43
2018-07-06T11:15:47.283Z,21.43
2018-07-06T11:16:54.122Z,21.45
2018-07-06T11:18:01.001Z,21.47
2018-07-06T11:19:07.757Z,21.48
2018-07-06T11:20:14.577Z,21.50
2018-07-06T11:21:21.351Z,21.51
2018-07-06T11:22:28.138Z,21.52
2018-07-06T11:23:35.218Z,21.52
2018-07-06T11:24:42.138Z,21.55
2018-07-06T11:25:48.978Z,21.57
2018-07-06T11:26:55.841Z,21.59
2018-07-06T11:28:02.610Z,21.59
2018-07-06T11:29:09.795Z,21.61
2018-07-06T11:30:16.617Z,21.62
2018-07-06T11:31:23.412Z,21.64
2018-07-06T11:32:30.194Z,21.67
2018-07-06T11:33:36.944Z,21.69
2018-07-06T11:34:43.843Z,21.69
2018-07-06T11:35:50.661Z,21.71
2018-07-06T11:36:57.487Z,21.74
2018-07-06T11:38:05.173Z,21.75
2018-07-06T11:39:11.015Z,21.78
2018-07-06T11:40:18.197Z,21.79
2018-07-06T11:41:24.655Z,21.80
2018-07-06T11:42:31.513Z,21.80
2018-07-06T11:43:38.557Z,21.83
2018-07-06T11:44:45.440Z,21.85
2018-07-06T11:45:52.336Z,21.87
2018-07-06T11:46:59.319Z,21.89
2018-07-06T11:48:06.147Z,21.90
2018-07-06T11:49:12.915Z,21.92
2018-07-06T11:50:19.917Z,21.93
2018-07-06T11:51:26.761Z,21.95
2018-07-06T11:52:33.729Z,21.95
2018-07-06T11:53:40.531Z,21.99
2018-07-06T11:54:47.388Z,22.00
2018-07-06T11:55:54.268Z,22.02
2018-07-06T11:57:01.258Z,22.04
2018-07-06T11:58:08.090Z,22.05
2018-07-06T11:59:14.963Z,22.06
2018-07-06T12:00:21.946Z,22.08
2018-07-06T12:01:28.967Z,22.10
2018-07-06T12:02:36.766Z,22.10
2018-07-06T12:03:43.015Z,22.12
2018-07-06T12:04:49.468Z,22.14
2018-07-06T12:05:56.234Z,22.15
2018-07-06T12:07:03.024Z,22.15
2018-07-06T12:08:09.837Z,22.17
2018-07-06T12:09:16.599Z,22.19
2018-07-06T12:10:23.442Z,22.21
2018-07-06T12:11:30.380Z,22.20
2018-07-06T12:12:37.335Z,22.23
2018-07-06T12:13:44.181Z,22.25
2018-07-06T12:14:51.002Z,22.26
2018-07-06T12:15:57.927Z,22.29
2018-07-06T12:17:04.800Z,22.28
2018-07-06T12:18:11.670Z,22.32
2018-07-06T12:19:18.513Z,22.33
2018-07-06T12:20:25.283Z,22.34
2018-07-06T12:21:32.169Z,22.33
2018-07-06T12:22:39.076Z,22.36
2018-07-06T12:23:45.946Z,22.37
2018-07-06T12:24:52.849Z,22.39
2018-07-06T12:25:59.719Z,22.40
2018-07-06T12:27:06.551Z,22.42
2018-07-06T12:28:13.325Z,22.44
2018-07-06T12:29:20.130Z,22.44
2018-07-06T12:30:28.692Z,22.45
2018-07-06T12:31:33.958Z,22.47
2018-07-06T12:32:40.874Z,22.48
2018-07-06T12:33:47.616Z,22.49
2018-07-06T12:34:54.516Z,22.51
2018-07-06T12:36:01.642Z,22.51
2018-07-06T12:37:08.654Z,22.52
2018-07-06T12:38:15.694Z,22.54
2018-07-06T12:39:22.494Z,22.54
2018-07-06T12:40:29.335Z,22.55
2018-07-06T12:41:36.159Z,22.57
2018-07-06T12:42:42.984Z,22.60
2018-07-06T12:43:49.799Z,22.60
2018-07-06T12:44:56.674Z,22.62
2018-07-06T12:46:03.478Z,22.63
2018-07-06T12:47:10.401Z,22.66
2018-07-06T12:48:17.221Z,22.65
2018-07-06T12:49:24.034Z,22.67
2018-07-06T12:50:30.816Z,22.68
2018-07-06T12:51:37.728Z,22.69
2018-07-06T12:52:44.633Z,22.70
2018-07-06T12:53:51.485Z,22.70
2018-07-06T12:54:59.104Z,22.72
2018-07-06T12:56:05.134Z,22.73
2018-07-06T12:57:11.962Z,22.75
2018-07-06T12:58:18.849Z,22.76
2018-07-06T12:59:25.668Z,22.78
2018-07-06T13:00:32.520Z,22.77
2018-07-06T13:01:39.571Z,22.79
2018-07-06T13:02:46.402Z,22.82
2018-07-06T13:03:53.378Z,22.83
2018-07-06T13:05:00.275Z,22.83
2018-07-06T13:06:07.231Z,22.84
2018-07-06T13:07:14.023Z,22.85
2018-07-06T13:08:21.007Z,22.87
2018-07-06T13:09:27.879Z,22.88
2018-07-06T13:10:34.772Z,22.88
2018-07-06T13:11:43.486Z,22.90
2018-07-06T13:12:48.591Z,22.90
2018-07-06T13:13:55.478Z,22.91
2018-07-06T13:15:02.336Z,22.93
2018-07-06T13:16:09.214Z,22.94
2018-07-06T13:17:16.001Z,22.94
2018-07-06T13:18:22.841Z,22.97
2018-07-06T13:19:29.632Z,22.97
2018-07-06T13:20:36.526Z,22.99
2018-07-06T13:21:43.081Z,23.00
2018-07-06T13:22:50.226Z,23.01
2018-07-06T13:23:57.107Z,23.02
2018-07-06T13:25:03.892Z,23.02
2018-07-06T13:26:10.775Z,23.04
2018-07-06T13:27:17.709Z,23.05
2018-07-06T13:28:24.523Z,23.06
2018-07-06T13:29:31.382Z,23.08
2018-07-06T13:30:38.243Z,23.09
2018-07-06T13:31:45.089Z,23.10
2018-07-06T13:32:52.206Z,23.11
2018-07-06T13:33:59.040Z,23.13
2018-07-06T13:35:05.919Z,23.13
2018-07-06T13:36:12.946Z,23.14
2018-07-06T13:37:19.946Z,23.17
2018-07-06T13:38:26.771Z,23.19
2018-07-06T13:39:33.668Z,23.19
2018-07-06T13:40:40.542Z,23.21
2018-07-06T13:41:49.231Z,23.22
2018-07-06T13:42:54.666Z,23.23
2018-07-06T13:44:01.590Z,23.25
2018-07-06T13:45:08.476Z,23.25
2018-07-06T13:46:15.309Z,23.26
2018-07-06T13:47:22.135Z,23.26
2018-07-06T13:48:28.948Z,23.28
2018-07-06T13:49:35.756Z,23.28
2018-07-06T13:50:42.577Z,23.30
2018-07-06T13:51:49.342Z,23.32
2018-07-06T13:52:56.223Z,23.33
2018-07-06T13:54:03.035Z,23.34
2018-07-06T13:55:09.942Z,23.35
2018-07-06T13:56:16.724Z,23.37
2018-07-06T13:57:23.514Z,23.39
2018-07-06T13:58:30.356Z,23.38
2018-07-06T13:59:37.190Z,23.40
2018-07-06T14:00:43.861Z,23.42
2018-07-06T14:01:50.719Z,23.43
2018-07-06T14:02:57.703Z,23.44
2018-07-06T14:04:04.485Z,23.45
2018-07-06T14:05:11.320Z,23.47
2018-07-06T14:06:18.192Z,23.47
2018-07-06T14:07:25.076Z,23.48
2018-07-06T14:08:31.904Z,23.49
2018-07-06T14:09:38.712Z,23.50
2018-07-06T14:10:45.488Z,23.52
2018-07-06T14:11:52.348Z,23.52
2018-07-06T14:12:59.186Z,23.53
2018-07-06T14:14:06.019Z,23.53
2018-07-06T14:15:12.930Z,23.55
2018-07-06T14:16:19.803Z,23.57
2018-07-06T14:17:26.631Z,23.58
2018-07-06T14:18:33.464Z,23.59
2018-07-06T14:19:40.322Z,23.61
2018-07-06T14:20:47.075Z,23.63
2018-07-06T14:21:54.020Z,23.63
2018-07-06T14:23:00.851Z,23.66
2018-07-06T14:24:07.651Z,23.66